Main page
METAR-TAF:

METAR-TAF

Airports :

Jinnah International Airport

Karachi, Pakistan

latitude: 24-54N, longitude: 067-08E, elevation: 21 m

Current weather observation

The report was made 57 minutes ago, at 07:55 UTC
Wind 6 kt from the North/Northeast
Temperature 32°C
Humidity 23%
Pressure 1014 hPa
Visibility: 7000 m
Few clouds at a height of 2000 ft

METAR: OPKC 210755Z 03006KT 7000 FEW020 32/08 Q1014 NOSIG

Time: 13:52 (08:52 UTC)

Forecast

The report was made 2 hours and 22 minutes ago, at 06:30 UTC
Forecast valid from 21 at 09 UTC to 21 at 18 UTC
Wind 8 kt from the West/Southwest with gusts up to 18 kt
Visibility: 6000 m

TAF: OPKC 210630Z 2109/2118 24008G18KT 6000 NSC

Weather observations and forecasts of more than 4000 airports (METAR and TAF reports).

The available stations are represented by yellow and red dots on the map.

Hover mouse over dot to see the name of the station.

Then click to see weather observations and forecasts.

To change the map : click on the green buttons with a black cross to zoom in, on the green button with a dash to zoom out, or on the green arrows for adjacent maps.


METAR-TAF: